Time;durP1;ratioP1;P1;durP2;ratioP2;P2;SDS_P1;SDS_P2;PMS_P1;PMS_P2;Temp;Humidity;BMP_temperature;BMP_pressure;BME280_temperature;BME280_humidity;BME280_pressure;Samples;Min_cycle;Max_cycle;Signal;HPM_P1;HPM_P2
2021/08/20 00:01:57;;;;;;;3.22;2.53;;;;;;;17.16;91.41;99006.34;5040730;28;20045;-80
2021/08/20 00:04:24;;;;;;;2.63;1.58;;;;;;;17.06;91.69;99001.41;5055066;28;20099;-79
2021/08/20 00:06:54;;;;;;;2.63;1.77;;;;;;;17.11;91.33;99001.56;5055239;28;20045;-80
2021/08/20 00:09:22;;;;;;;6.47;2.20;;;;;;;17.09;90.75;98998.22;5054661;28;20061;-80
2021/08/20 00:11:49;;;;;;;2.97;1.70;;;;;;;17.21;90.09;99002.91;5055274;28;20057;-79
2021/08/20 00:14:16;;;;;;;2.35;1.90;;;;;;;17.01;91.35;99001.25;5046261;28;20084;-79
2021/08/20 00:16:43;;;;;;;4.57;1.90;;;;;;;17.11;90.91;99000.72;5015134;28;20494;-79
2021/08/20 00:19:11;;;;;;;3.30;2.10;;;;;;;17.06;90.32;98997.84;5028216;28;20457;-79
2021/08/20 00:21:48;;;;;;;2.95;2.05;;;;;;;17.11;89.59;98997.97;5034278;28;20056;-80
2021/08/20 00:24:16;;;;;;;4.15;2.20;;;;;;;17.11;90.18;98995.22;5034646;28;20053;-79
2021/08/20 00:26:45;;;;;;;5.40;2.22;;;;;;;17.06;90.83;98989.59;5054282;28;20459;-79
2021/08/20 00:29:12;;;;;;;2.97;2.20;;;;;;;17.13;90.85;98995.81;5051378;28;20053;-79
2021/08/20 00:31:38;;;;;;;9.25;2.72;;;;;;;17.07;91.42;98992.13;5034013;28;20049;-80
2021/08/20 00:34:06;;;;;;;4.72;1.85;;;;;;;17.09;91.28;99003.69;5033959;28;20053;-80
2021/08/20 00:36:33;;;;;;;4.88;1.92;;;;;;;17.08;91.45;98999.25;5033814;28;20558;-79
2021/08/20 00:39:03;;;;;;;3.08;1.70;;;;;;;16.94;91.76;98993.13;5033756;28;20053;-79
2021/08/20 00:41:30;;;;;;;3.70;1.70;;;;;;;16.91;92.05;98990.00;5034401;28;20064;-80
2021/08/20 00:44:00;;;;;;;3.80;2.17;;;;;;;16.84;92.52;98992.78;5034392;28;20487;-79
2021/08/20 00:46:27;;;;;;;3.78;1.95;;;;;;;16.85;92.39;98979.91;5026003;28;20440;-79
2021/08/20 00:48:54;;;;;;;3.22;2.00;;;;;;;16.91;92.51;98992.75;5034293;28;20112;-79
2021/08/20 00:51:24;;;;;;;3.78;1.80;;;;;;;16.72;93.33;98976.25;5034333;28;20107;-79
2021/08/20 00:53:53;;;;;;;4.38;2.00;;;;;;;16.81;93.29;98985.84;5017365;28;20111;-78
2021/08/20 00:56:20;;;;;;;2.97;1.88;;;;;;;16.99;92.48;98997.91;5035754;28;20067;-78
2021/08/20 00:58:48;;;;;;;5.00;1.80;;;;;;;16.96;92.59;98990.97;5054181;28;20448;-78
2021/08/20 01:01:17;;;;;;;4.78;2.40;;;;;;;17.01;91.45;98987.53;5039551;28;20494;-78
2021/08/20 01:03:44;;;;;;;3.85;2.10;;;;;;;17.02;91.40;98986.47;5032227;28;20486;-79
2021/08/20 01:06:11;;;;;;;3.78;1.90;;;;;;;17.07;91.71;98994.00;5029709;28;20053;-79
2021/08/20 01:08:39;;;;;;;3.47;2.03;;;;;;;16.92;92.68;99008.13;5032034;28;20128;-79
2021/08/20 01:11:07;;;;;;;3.72;2.08;;;;;;;16.86;93.17;98992.56;5017891;28;20053;-79
2021/08/20 01:13:36;;;;;;;3.28;2.05;;;;;;;16.92;93.25;98998.00;5050291;28;20462;-78
2021/08/20 01:16:04;;;;;;;5.05;2.00;;;;;;;16.81;93.96;98988.59;5034544;28;20088;-79
2021/08/20 01:18:34;;;;;;;5.97;2.30;;;;;;;16.70;94.53;98983.03;5012552;28;20050;-79
2021/08/20 01:21:10;;;;;;;3.72;2.30;;;;;;;16.62;94.80;98979.53;5013970;28;20498;-79
2021/08/20 01:23:39;;;;;;;3.10;2.10;;;;;;;16.68;94.58;98971.44;5013995;28;20062;-79
2021/08/20 01:26:07;;;;;;;5.15;2.10;;;;;;;16.70;95.01;98986.63;5014026;28;20050;-79
2021/08/20 01:28:34;;;;;;;4.13;2.10;;;;;;;16.67;94.90;98984.34;5030080;28;20046;-78
2021/08/20 01:31:02;;;;;;;5.43;2.40;;;;;;;16.64;94.93;98971.91;5032089;28;20057;-78
2021/08/20 01:33:30;;;;;;;4.80;2.40;;;;;;;16.68;94.34;98974.19;5033169;28;20287;-79
2021/08/20 01:35:57;;;;;;;2.42;1.92;;;;;;;16.70;94.92;98983.88;5033159;28;20048;-79
2021/08/20 01:38:24;;;;;;;6.43;1.90;;;;;;;16.65;94.89;98972.75;5026788;28;20053;-79
2021/08/20 01:40:51;;;;;;;7.95;1.83;;;;;;;16.71;94.57;98980.06;5013689;28;20053;-78
2021/08/20 01:43:21;;;;;;;2.72;1.63;;;;;;;16.71;94.66;98984.72;5015105;28;20045;-78
2021/08/20 01:45:48;;;;;;;6.65;2.17;;;;;;;16.69;94.68;98981.38;5038994;28;20519;-79
2021/08/20 01:48:15;;;;;;;5.20;2.88;;;;;;;16.57;95.24;98968.38;5032287;28;20053;-79
2021/08/20 01:50:43;;;;;;;5.82;2.10;;;;;;;16.49;95.37;98963.22;5033326;28;20103;-79
2021/08/20 01:53:11;;;;;;;4.00;2.63;;;;;;;16.59;95.33;98974.50;5023725;28;20057;-79
2021/08/20 01:55:38;;;;;;;9.73;2.10;;;;;;;16.55;95.37;98978.75;5013487;28;20054;-79
2021/08/20 01:58:05;;;;;;;3.85;1.60;;;;;;;16.64;95.35;98982.06;5013094;28;20058;-78
2021/08/20 02:00:34;;;;;;;5.85;2.95;;;;;;;16.54;95.34;98968.03;5024704;28;20459;-78
2021/08/20 02:03:01;;;;;;;6.57;1.95;;;;;;;16.53;95.54;98961.69;5040949;28;20397;-78
2021/08/20 02:05:28;;;;;;;2.15;1.90;;;;;;;16.53;95.31;98967.19;5032991;28;20394;-78
2021/08/20 02:07:54;;;;;;;2.95;2.08;;;;;;;16.70;95.22;98974.81;5030625;28;20390;-78
2021/08/20 02:10:22;;;;;;;3.20;2.05;;;;;;;16.75;94.37;98973.03;5032729;28;20076;-78
2021/08/20 02:12:48;;;;;;;5.20;2.05;;;;;;;16.65;94.62;98970.03;5032787;28;20045;-78
2021/08/20 02:15:15;;;;;;;3.03;1.88;;;;;;;16.74;94.48;98981.50;5032755;28;20077;-78
2021/08/20 02:17:43;;;;;;;4.28;2.17;;;;;;;16.72;94.20;98978.97;5030939;28;20050;-79
2021/08/20 02:20:10;;;;;;;8.75;3.03;;;;;;;16.73;94.51;98985.34;5017034;28;20049;-78
2021/08/20 02:22:37;;;;;;;2.88;2.25;;;;;;;16.66;95.00;98979.06;5032523;28;20100;-78
2021/08/20 02:25:05;;;;;;;1.80;1.70;;;;;;;16.55;95.78;98980.69;5032423;28;20049;-78
2021/08/20 02:27:32;;;;;;;2.67;1.90;;;;;;;16.40;96.12;98979.13;5032501;28;20103;-79
2021/08/20 02:29:58;;;;;;;3.40;2.22;;;;;;;16.50;96.01;98996.97;5032617;28;20100;-78
2021/08/20 02:32:25;;;;;;;2.17;1.88;;;;;;;16.46;96.35;98989.19;5032600;28;20045;-79
2021/08/20 02:34:53;;;;;;;9.52;2.65;;;;;;;16.54;95.82;98988.06;5047300;28;20447;-79
2021/08/20 02:37:20;;;;;;;3.03;1.80;;;;;;;16.51;96.32;98995.91;5030498;28;20143;-79
2021/08/20 02:39:47;;;;;;;3.15;1.98;;;;;;;16.50;96.02;98980.50;5012900;28;20120;-78
2021/08/20 02:42:13;;;;;;;2.47;1.67;;;;;;;16.45;95.91;98979.31;5012757;28;20045;-79
2021/08/20 02:44:40;;;;;;;4.75;2.30;;;;;;;16.44;96.14;98998.75;5012552;28;20049;-79
2021/08/20 02:47:07;;;;;;;3.25;1.80;;;;;;;16.41;96.38;98986.31;5012532;28;20140;-78
2021/08/20 02:49:33;;;;;;;2.60;1.85;;;;;;;16.50;96.59;99000.56;5012363;28;20483;-79
2021/08/20 02:52:02;;;;;;;6.32;2.58;;;;;;;16.56;95.63;98983.19;5036395;28;20490;-78
2021/08/20 02:54:28;;;;;;;3.10;1.80;;;;;;;16.48;96.16;98988.97;5035877;28;20099;-78
2021/08/20 02:56:55;;;;;;;2.10;1.80;;;;;;;16.39;96.53;98984.84;5016618;28;20115;-79
2021/08/20 02:59:22;;;;;;;5.38;2.17;;;;;;;16.40;96.68;98976.41;5012562;28;20465;-79
2021/08/20 03:01:49;;;;;;;4.35;2.20;;;;;;;16.48;96.37;98999.94;5012413;28;20054;-79
2021/08/20 03:04:16;;;;;;;5.00;2.22;;;;;;;16.39;96.63;98984.84;5011931;28;20502;-80
2021/08/20 03:06:43;;;;;;;7.80;1.77;;;;;;;16.27;97.01;98982.88;5016588;28;20112;-79
2021/08/20 03:09:12;;;;;;;2.70;2.20;;;;;;;16.29;96.94;98985.41;5032037;28;20124;-79
2021/08/20 03:11:39;;;;;;;3.13;1.92;;;;;;;16.28;97.23;98983.72;5030005;28;20498;-79
2021/08/20 03:14:06;;;;;;;4.03;1.92;;;;;;;16.26;97.38;98983.09;5017369;28;20107;-79
2021/08/20 03:16:33;;;;;;;4.13;2.00;;;;;;;16.37;96.57;98985.09;5012579;28;20053;-79
2021/08/20 03:19:00;;;;;;;5.65;2.08;;;;;;;16.36;96.65;98988.06;5026082;28;20053;-79
2021/08/20 03:21:27;;;;;;;2.83;1.88;;;;;;;16.30;97.11;98981.56;5035246;28;20483;-79
2021/08/20 03:23:54;;;;;;;4.47;1.70;;;;;;;16.18;97.38;98965.00;5036057;28;20056;-79
2021/08/20 03:26:23;;;;;;;2.88;2.28;;;;;;;16.25;97.40;98978.69;5036148;28;20053;-79
2021/08/20 03:28:50;;;;;;;6.60;1.90;;;;;;;16.22;97.57;98979.13;5034133;28;20046;-79
2021/08/20 03:31:17;;;;;;;3.25;1.98;;;;;;;16.17;97.15;98967.97;5025459;28;20058;-79
2021/08/20 03:33:43;;;;;;;3.50;2.10;;;;;;;16.31;97.11;98985.16;5015619;28;20111;-79
2021/08/20 03:36:11;;;;;;;3.58;2.30;;;;;;;16.33;96.64;98974.78;5016028;28;20545;-79
2021/08/20 03:38:38;;;;;;;3.70;2.17;;;;;;;16.45;95.06;98979.31;5022109;28;20544;-79
2021/08/20 03:41:04;;;;;;;7.07;2.42;;;;;;;16.53;94.63;98986.41;5035661;28;20045;-79
2021/08/20 03:43:33;;;;;;;3.38;1.98;;;;;;;16.45;95.20;98975.72;5035207;28;20057;-80
2021/08/20 03:45:59;;;;;;;3.33;1.98;;;;;;;16.37;95.87;98978.75;5035785;28;20108;-80
2021/08/20 03:48:26;;;;;;;2.90;2.10;;;;;;;16.40;96.60;98986.53;5024350;28;20054;-80
2021/08/20 03:50:53;;;;;;;3.17;1.75;;;;;;;16.22;96.65;98976.38;5015736;28;20104;-80
2021/08/20 03:53:19;;;;;;;2.90;1.90;;;;;;;16.31;96.80;98993.41;5015359;28;20104;-80
2021/08/20 03:55:46;;;;;;;4.30;2.47;;;;;;;16.24;96.28;98986.06;5048799;28;20102;-80
2021/08/20 03:58:14;;;;;;;4.93;2.40;;;;;;;16.36;94.65;98990.78;5055264;28;20053;-80
2021/08/20 04:00:44;;;;;;;3.55;2.58;;;;;;;16.47;94.70;98990.06;5055275;28;20091;-80
2021/08/20 04:03:10;;;;;;;3.70;2.20;;;;;;;16.35;95.37;98989.97;5054873;28;20481;-80
2021/08/20 04:05:37;;;;;;;5.95;2.85;;;;;;;16.40;94.82;98994.78;5027834;28;20045;-80
2021/08/20 04:08:04;;;;;;;4.03;1.98;;;;;;;16.27;95.67;98990.25;5015200;28;20058;-79
2021/08/20 04:10:31;;;;;;;2.65;2.08;;;;;;;16.27;95.30;98979.28;5031874;28;20420;-79
2021/08/20 04:12:58;;;;;;;5.57;2.38;;;;;;;16.25;95.90;98998.69;5055007;28;20106;-79
2021/08/20 04:15:24;;;;;;;4.65;2.58;;;;;;;16.36;95.25;98999.03;5054998;28;20049;-79
2021/08/20 04:17:53;;;;;;;3.33;2.13;;;;;;;16.34;95.15;99002.00;5054726;28;20056;-79
2021/08/20 04:20:20;;;;;;;5.47;2.38;;;;;;;16.30;95.24;98994.44;5054815;28;20053;-81
2021/08/20 04:22:48;;;;;;;3.85;2.30;;;;;;;16.44;94.72;99010.56;5036618;28;20403;-79
2021/08/20 04:25:15;;;;;;;5.03;2.10;;;;;;;16.44;94.19;99002.31;5014615;28;20054;-81
2021/08/20 04:27:42;;;;;;;2.90;1.90;;;;;;;16.32;94.85;98997.78;5049593;28;20497;-81
2021/08/20 04:30:09;;;;;;;5.78;2.38;;;;;;;16.42;95.04;99006.34;5054259;28;20049;-81
2021/08/20 04:32:36;;;;;;;3.92;2.47;;;;;;;16.30;95.13;98991.72;5054496;28;20619;-82
2021/08/20 04:35:05;;;;;;;2.88;1.92;;;;;;;16.46;94.66;99013.06;5054489;28;20049;-80
2021/08/20 04:37:32;;;;;;;2.90;2.27;;;;;;;16.41;94.32;99002.78;5054205;28;20052;-80
2021/08/20 04:39:58;;;;;;;4.13;2.17;;;;;;;16.35;94.62;99008.31;5043199;28;20045;-79
2021/08/20 04:42:25;;;;;;;3.88;2.35;;;;;;;16.43;94.19;99011.59;5043689;28;20075;-80
2021/08/20 04:44:52;;;;;;;3.40;2.80;;;;;;;16.56;92.93;99018.00;5054443;28;20056;-80
2021/08/20 04:47:18;;;;;;;3.42;2.30;;;;;;;16.38;94.19;99014.19;5054225;28;20049;-80
2021/08/20 04:49:45;;;;;;;3.67;2.15;;;;;;;16.41;94.87;99012.88;5022513;28;20077;-80
2021/08/20 04:52:14;;;;;;;3.60;2.22;;;;;;;16.37;95.25;99009.78;5014617;28;20061;-80
2021/08/20 04:54:41;;;;;;;2.90;2.65;;;;;;;16.34;95.91;99014.88;5014152;28;20144;-80
2021/08/20 04:57:08;;;;;;;4.35;2.22;;;;;;;16.27;96.27;99018.53;5022683;28;20410;-81
2021/08/20 04:59:35;;;;;;;3.40;2.20;;;;;;;16.29;96.14;99026.53;5017687;28;20050;-80
2021/08/20 05:02:03;;;;;;;4.43;2.35;;;;;;;16.39;95.03;99023.25;5014477;28;20050;-81
2021/08/20 05:04:32;;;;;;;4.13;2.13;;;;;;;16.44;94.40;99023.44;5014118;28;20050;-80
2021/08/20 05:06:59;;;;;;;5.45;2.67;;;;;;;16.37;94.37;99015.25;5014248;28;20108;-80
2021/08/20 05:09:28;;;;;;;3.75;2.47;;;;;;;16.40;94.72;99023.03;5014008;28;20481;-80
2021/08/20 05:11:55;;;;;;;3.17;2.30;;;;;;;16.42;94.37;99042.00;5023386;28;20060;-80
2021/08/20 05:14:22;;;;;;;4.95;2.22;;;;;;;16.32;95.19;99033.47;5049994;28;20045;-80
2021/08/20 05:16:48;;;;;;;7.60;2.47;;;;;;;16.56;94.85;99046.31;5018605;28;20096;-80
2021/08/20 05:19:15;;;;;;;3.30;2.60;;;;;;;16.53;95.59;99048.66;5014164;28;20062;-81
2021/08/20 05:21:42;;;;;;;3.22;2.45;;;;;;;16.63;94.96;99051.72;5014189;28;20108;-81
2021/08/20 05:24:09;;;;;;;4.18;2.33;;;;;;;16.59;95.05;99056.84;5013965;28;20075;-81
2021/08/20 05:26:37;;;;;;;4.53;2.20;;;;;;;16.56;94.92;99046.31;5014239;28;20107;-81
2021/08/20 05:29:04;;;;;;;6.53;2.17;;;;;;;16.49;95.65;99044.72;5013906;28;20482;-81
2021/08/20 05:31:31;;;;;;;4.53;2.25;;;;;;;16.53;96.15;99052.25;5049818;28;20121;-81
2021/08/20 05:33:58;;;;;;;2.92;2.10;;;;;;;16.55;95.38;99057.53;5022069;28;20050;-81
2021/08/20 05:36:24;;;;;;;4.82;2.35;;;;;;;16.63;94.85;99065.44;5014008;28;20100;-80
2021/08/20 05:38:56;;;;;;;5.00;2.25;;;;;;;16.67;94.55;99060.34;5013433;28;20050;-80
2021/08/20 05:41:22;;;;;;;5.13;2.47;;;;;;;16.67;94.45;99065.84;5012798;28;20050;-81
2021/08/20 05:43:50;;;;;;;3.35;2.70;;;;;;;16.62;95.48;99064.63;5013357;28;20050;-81
2021/08/20 05:46:17;;;;;;;5.95;2.60;;;;;;;16.74;95.06;99069.34;5013876;28;20046;-80
2021/08/20 05:48:44;;;;;;;3.65;2.35;;;;;;;16.84;94.08;99074.31;5025930;28;20454;-80
2021/08/20 05:51:11;;;;;;;14.88;3.05;;;;;;;16.79;93.43;99066.78;5019362;28;20104;-81
2021/08/20 05:53:37;;;;;;;7.57;2.70;;;;;;;16.83;93.63;99059.75;5014701;28;20084;-81
2021/08/20 05:56:04;;;;;;;5.88;3.17;;;;;;;16.85;94.03;99070.50;5032970;28;20559;-81
2021/08/20 05:58:31;;;;;;;4.75;2.70;;;;;;;16.90;94.01;99077.00;5033501;28;20073;-81
2021/08/20 06:00:59;;;;;;;4.28;2.88;;;;;;;16.92;94.50;99074.03;5033121;28;20111;-81
2021/08/20 06:03:26;;;;;;;4.13;2.38;;;;;;;16.90;94.46;99076.19;5025083;28;20453;-80
2021/08/20 06:05:52;;;;;;;3.65;2.63;;;;;;;17.05;94.24;99084.03;5014081;28;20053;-80
2021/08/20 06:08:19;;;;;;;8.07;2.65;;;;;;;17.01;93.65;99083.63;5032483;28;20140;-81
2021/08/20 06:10:47;;;;;;;5.38;2.60;;;;;;;17.10;93.26;99076.78;5032889;28;20456;-80
2021/08/20 06:13:14;;;;;;;4.82;3.10;;;;;;;17.19;92.13;99071.81;5032576;28;20068;-80
2021/08/20 06:15:41;;;;;;;9.25;2.90;;;;;;;17.17;91.74;99074.78;5032966;28;20127;-81
2021/08/20 06:18:12;;;;;;;3.08;1.90;;;;;;;17.43;90.78;99089.28;5032411;28;20096;-81
2021/08/20 06:20:39;;;;;;;8.98;2.78;;;;;;;17.47;90.47;99097.88;5032405;28;20042;-80
2021/08/20 06:23:06;;;;;;;4.25;2.60;;;;;;;17.48;91.34;99091.31;5030928;28;20099;-80
2021/08/20 06:25:32;;;;;;;6.55;3.45;;;;;;;17.63;89.70;99091.75;5032908;28;20053;-80
2021/08/20 06:27:59;;;;;;;6.60;2.90;;;;;;;17.71;89.63;99092.50;5032568;28;20050;-81
2021/08/20 06:30:26;;;;;;;6.47;3.30;;;;;;;17.84;88.12;99092.31;5032496;28;20072;-81
2021/08/20 06:32:53;;;;;;;5.78;2.53;;;;;;;17.77;88.24;99089.63;5032598;28;20053;-80
2021/08/20 06:35:21;;;;;;;5.07;3.00;;;;;;;17.98;88.20;99101.22;5028060;28;20053;-81
2021/08/20 06:37:48;;;;;;;9.40;2.80;;;;;;;17.99;87.49;99100.13;5012296;28;20478;-80
2021/08/20 06:40:15;;;;;;;5.57;2.72;;;;;;;18.06;87.32;99100.88;5030603;28;20037;-80
2021/08/20 06:42:41;;;;;;;4.53;2.88;;;;;;;18.16;86.92;99103.88;5051196;28;20048;-80
2021/08/20 06:45:09;;;;;;;10.00;2.78;;;;;;;18.34;87.62;99102.97;5032765;28;20142;-80
2021/08/20 06:47:35;;;;;;;6.93;3.30;;;;;;;18.26;85.43;99095.06;5027673;28;20050;-80
2021/08/20 06:50:04;;;;;;;3.72;2.67;;;;;;;18.39;85.15;99096.75;5015419;28;20077;-80
2021/08/20 06:52:49;;;;;;;5.60;3.10;;;;;;;18.62;84.08;99098.66;5011876;28;20050;-81
2021/08/20 06:55:28;;;;;;;8.65;3.08;;;;;;;18.84;84.07;99100.84;5026883;28;20104;-80
2021/08/20 06:57:55;;;;;;;6.15;2.80;;;;;;;19.01;82.60;99078.91;5016667;28;20042;-80
2021/08/20 07:00:21;;;;;;;4.43;2.55;;;;;;;19.08;80.75;99094.22;5027436;28;20046;-80
2021/08/20 07:02:48;;;;;;;6.72;2.63;;;;;;;19.36;79.70;99095.38;5029028;28;20095;-80
2021/08/20 07:05:17;;;;;;;4.03;2.85;;;;;;;19.60;80.14;99084.25;5023565;28;20045;-80
2021/08/20 07:07:45;;;;;;;4.93;2.55;;;;;;;19.91;77.90;99093.16;5017176;28;20456;-81
2021/08/20 07:10:14;;;;;;;4.03;2.70;;;;;;;20.08;76.66;99093.16;5012429;28;20050;-80
2021/08/20 07:12:41;;;;;;;8.23;2.88;;;;;;;20.43;74.02;99092.94;5019960;28;20057;-80
2021/08/20 07:15:10;;;;;;;8.35;2.90;;;;;;;20.51;73.53;99084.22;5016540;28;20410;-80
2021/08/20 07:17:37;;;;;;;7.30;3.00;;;;;;;20.57;72.79;99092.59;5023447;28;20045;-80
2021/08/20 07:20:09;;;;;;;5.75;3.15;;;;;;;20.37;73.74;99085.66;5025741;28;20050;-80
2021/08/20 07:22:36;;;;;;;5.80;3.20;;;;;;;20.18;73.66;99087.00;5020846;28;20054;-81
2021/08/20 07:25:05;;;;;;;7.18;2.95;;;;;;;20.52;72.86;99094.19;5012027;28;20492;-81
2021/08/20 07:27:41;;;;;;;7.50;3.42;;;;;;;20.83;72.70;99091.91;5025073;28;20055;-80
2021/08/20 07:30:38;;;;;;;5.00;2.83;;;;;;;21.38;70.36;99094.88;5019417;28;20493;-80
2021/08/20 07:33:05;;;;;;;8.23;3.55;;;;;;;21.61;70.16;99099.31;5026497;28;20064;-80
2021/08/20 07:35:31;;;;;;;5.47;3.42;;;;;;;21.61;68.43;99081.88;5020958;28;20049;-81
2021/08/20 07:37:58;;;;;;;6.57;3.50;;;;;;;21.80;69.38;99094.28;5032310;28;20465;-80
2021/08/20 07:40:50;;;;;;;7.30;3.33;;;;;;;21.76;70.12;99084.81;5031590;28;20053;-80
2021/08/20 07:43:32;;;;;;;9.18;3.45;;;;;;;22.02;68.93;99104.44;5020396;28;20057;-81
2021/08/20 07:46:01;;;;;;;5.93;3.10;;;;;;;21.97;69.57;99107.16;5023106;28;20045;-79
2021/08/20 07:48:28;;;;;;;10.05;3.70;;;;;;;21.80;70.24;99097.03;5021931;28;20049;-80
2021/08/20 07:50:55;;;;;;;6.10;3.63;;;;;;;21.97;68.71;99093.34;5032540;28;20432;-80
2021/08/20 07:56:28;;;;;;;7.93;4.45;;;;;;;21.29;71.00;99096.41;4984871;28;20200;-79
2021/08/20 07:58:55;;;;;;;7.30;3.50;;;;;;;21.56;71.58;99100.09;5012483;28;20056;-79
2021/08/20 08:01:25;;;;;;;5.28;3.47;;;;;;;21.79;69.97;99095.34;5015006;28;20046;-80
2021/08/20 08:03:57;;;;;;;6.57;3.47;;;;;;;21.54;70.06;99105.06;5016306;28;20052;-80
2021/08/20 08:06:23;;;;;;;7.47;3.80;;;;;;;21.87;70.79;99102.34;5034790;28;20453;-80
2021/08/20 08:08:51;;;;;;;5.47;3.63;;;;;;;22.04;69.81;99102.22;5018954;28;20103;-80
2021/08/20 08:11:18;;;;;;;8.52;3.83;;;;;;;22.04;68.21;99105.84;5035069;28;20045;-80
2021/08/20 08:13:47;;;;;;;9.52;4.25;;;;;;;21.94;67.42;99099.38;5024104;28;20388;-79
2021/08/20 08:16:16;;;;;;;7.72;4.70;;;;;;;22.16;65.82;99104.84;5025610;28;20058;-79
2021/08/20 08:18:43;;;;;;;6.60;3.95;;;;;;;21.92;68.50;99107.97;5015472;28;20560;-80
2021/08/20 08:21:10;;;;;;;4.90;3.55;;;;;;;21.74;68.69;99098.09;5022496;28;20120;-80
2021/08/20 08:23:38;;;;;;;5.28;3.53;;;;;;;21.92;67.73;99094.94;5032746;28;20087;-79
2021/08/20 08:26:05;;;;;;;5.50;3.92;;;;;;;21.87;67.97;99116.19;5021569;28;20192;-80
2021/08/20 08:28:32;;;;;;;10.90;4.30;;;;;;;22.10;65.81;99103.97;5027333;28;20053;-79
2021/08/20 08:31:02;;;;;;;8.02;4.15;;;;;;;22.26;66.83;99111.31;5018642;28;20548;-79
2021/08/20 08:33:29;;;;;;;5.70;4.20;;;;;;;22.50;64.46;99111.00;5031505;28;20141;-80
2021/08/20 08:35:56;;;;;;;6.10;3.90;;;;;;;22.44;65.92;99112.06;5025537;28;20050;-80
2021/08/20 08:38:22;;;;;;;9.95;4.88;;;;;;;22.63;65.45;99112.47;5017059;28;20371;-80
2021/08/20 08:40:50;;;;;;;9.13;3.88;;;;;;;22.98;63.51;99122.97;5016531;28;20050;-79
2021/08/20 08:43:17;;;;;;;7.10;4.00;;;;;;;22.78;64.58;99112.59;5023980;28;20050;-80
2021/08/20 08:45:45;;;;;;;6.18;3.78;;;;;;;23.09;62.75;99117.47;5021656;28;20046;-80
2021/08/20 08:48:14;;;;;;;5.32;3.75;;;;;;;23.13;62.70;99125.03;5028593;28;20593;-79
2021/08/20 08:50:44;;;;;;;7.18;4.47;;;;;;;23.43;61.32;99109.66;5016482;28;20050;-80
2021/08/20 08:53:11;;;;;;;5.50;4.22;;;;;;;23.27;61.57;99103.19;5024937;28;20049;-80
2021/08/20 08:55:38;;;;;;;8.02;4.43;;;;;;;23.40;61.17;99118.50;5030498;28;20127;-80
2021/08/20 08:58:06;;;;;;;7.10;4.15;;;;;;;23.56;60.76;99102.78;5013920;28;20108;-80
2021/08/20 09:00:34;;;;;;;6.72;3.95;;;;;;;23.06;61.83;99113.31;5030293;28;20505;-80
2021/08/20 09:03:01;;;;;;;7.40;3.55;;;;;;;23.27;62.77;99116.22;5015415;28;20049;-80
2021/08/20 09:05:42;;;;;;;5.95;3.53;;;;;;;23.09;62.53;99109.16;5028310;28;20504;-80
2021/08/20 09:08:12;;;;;;;7.95;3.78;;;;;;;22.77;63.24;99124.75;5031727;28;20401;-80
2021/08/20 09:10:47;;;;;;;4.90;3.03;;;;;;;22.04;64.85;99122.47;5034026;28;20527;-79
2021/08/20 09:13:15;;;;;;;5.90;3.00;;;;;;;21.90;65.64;99119.28;5029915;28;20053;-80
2021/08/20 09:15:44;;;;;;;4.05;3.15;;;;;;;21.56;64.98;99122.22;5029251;28;20056;-79
2021/08/20 09:18:20;;;;;;;6.28;3.22;;;;;;;21.49;64.64;99118.78;5037837;28;20049;-79
2021/08/20 09:20:49;;;;;;;10.32;3.78;;;;;;;21.57;66.44;99111.97;5032541;28;20557;-79
2021/08/20 09:23:22;;;;;;;6.93;3.58;;;;;;;21.76;65.13;99115.25;5026636;28;20050;-80
2021/08/20 09:25:50;;;;;;;7.53;2.78;;;;;;;21.90;64.74;99122.06;5016323;28;20048;-80
2021/08/20 09:28:22;;;;;;;5.88;2.72;;;;;;;21.71;63.62;99127.09;5014577;28;20143;-79
2021/08/20 09:31:02;;;;;;;6.03;3.17;;;;;;;21.74;63.40;99117.44;5013972;28;20054;-80
2021/08/20 09:33:31;;;;;;;3.85;2.92;;;;;;;21.64;63.91;99125.63;5021413;28;20409;-79
2021/08/20 09:36:01;;;;;;;14.45;3.22;;;;;;;21.77;64.23;99114.16;5032845;28;20101;-80
2021/08/20 09:38:30;;;;;;;4.65;2.83;;;;;;;21.66;63.22;99127.00;5031708;28;20095;-80
2021/08/20 09:40:59;;;;;;;5.68;3.08;;;;;;;21.91;63.56;99120.13;5032338;28;20050;-80
2021/08/20 09:43:30;;;;;;;6.97;3.40;;;;;;;22.16;62.34;99114.00;5031395;28;20501;-79
2021/08/20 09:46:00;;;;;;;3.92;3.05;;;;;;;22.44;62.11;99120.34;5033421;28;20388;-79
2021/08/20 09:48:50;;;;;;;4.40;2.78;;;;;;;22.66;61.06;99106.41;5013771;28;20096;-80
2021/08/20 09:51:41;;;;;;;5.18;3.33;;;;;;;22.67;60.22;99115.56;5031816;28;20096;-79
2021/08/20 09:54:10;;;;;;;5.70;2.92;;;;;;;22.85;59.42;99115.13;5026597;28;20130;-79
2021/08/20 09:56:38;;;;;;;6.80;2.92;;;;;;;23.22;59.61;99110.66;5032793;28;20448;-80
2021/08/20 09:59:06;;;;;;;7.78;3.35;;;;;;;23.15;57.92;99116.44;5032072;28;20053;-80
2021/08/20 10:01:34;;;;;;;10.30;3.85;;;;;;;23.34;56.80;99116.81;5028557;28;20073;-80
2021/08/20 10:04:03;;;;;;;3.90;2.95;;;;;;;23.46;57.97;99113.81;5032745;28;20049;-79
2021/08/20 10:06:32;;;;;;;5.00;2.30;;;;;;;22.91;57.32;99110.44;5029529;28;20081;-80
2021/08/20 10:09:03;;;;;;;4.50;2.55;;;;;;;22.48;59.51;99113.19;5026219;28;20052;-80
2021/08/20 10:11:30;;;;;;;4.15;2.40;;;;;;;22.61;59.08;99109.97;5020191;28;20044;-80
2021/08/20 10:14:02;;;;;;;7.18;2.78;;;;;;;22.86;57.95;99108.47;5012765;28;20129;-80
2021/08/20 10:16:37;;;;;;;3.67;2.60;;;;;;;23.15;58.00;99108.13;5013197;28;20088;-79
2021/08/20 10:19:06;;;;;;;4.15;2.38;;;;;;;23.24;56.59;99106.50;5013188;28;20042;-79
2021/08/20 10:21:35;;;;;;;5.63;2.75;;;;;;;22.98;57.93;99105.50;5013852;28;20494;-79
2021/08/20 10:24:04;;;;;;;3.38;2.15;;;;;;;23.13;55.91;99105.63;5013691;28;20061;-79
2021/08/20 10:26:31;;;;;;;4.18;2.38;;;;;;;23.18;56.32;99096.50;5013903;28;20049;-80
2021/08/20 10:28:58;;;;;;;3.70;2.38;;;;;;;23.45;55.48;99104.66;5012895;28;20100;-80
2021/08/20 10:31:26;;;;;;;7.57;2.50;;;;;;;23.61;55.88;99094.44;5022955;28;20057;-80
2021/08/20 10:33:53;;;;;;;6.70;3.05;;;;;;;23.79;53.52;99095.88;5017139;28;20563;-81
2021/08/20 10:36:37;;;;;;;3.47;2.10;;;;;;;23.94;53.57;99095.13;5029764;28;20045;-81
2021/08/20 10:39:06;;;;;;;3.70;2.20;;;;;;;24.09;52.77;99091.53;5024239;28;20049;-80
2021/08/20 10:41:34;;;;;;;3.20;2.70;;;;;;;24.38;53.62;99085.44;5014241;28;20050;-80
2021/08/20 10:44:05;;;;;;;5.65;2.00;;;;;;;24.44;51.50;99092.66;5020130;28;20296;-80
2021/08/20 10:47:09;;;;;;;6.32;2.20;;;;;;;24.72;48.16;99082.09;5033318;28;20107;-80
2021/08/20 10:49:48;;;;;;;5.05;2.10;;;;;;;24.76;49.54;99082.38;5033072;28;20638;-81
2021/08/20 10:52:36;;;;;;;4.55;2.22;;;;;;;24.81;47.90;99082.34;5029706;28;20103;-81
2021/08/20 10:55:26;;;;;;;3.45;1.83;;;;;;;24.36;48.80;99091.28;5031085;28;20558;-80
2021/08/20 10:58:11;;;;;;;3.72;2.45;;;;;;;23.95;48.92;99085.69;5031558;28;20047;-80
2021/08/20 11:00:56;;;;;;;3.10;1.90;;;;;;;23.74;50.74;99092.25;5032086;28;20056;-80
2021/08/20 11:03:54;;;;;;;4.13;2.20;;;;;;;23.67;49.21;99089.75;5030635;28;20042;-80
2021/08/20 11:06:55;;;;;;;4.93;2.63;;;;;;;23.81;51.22;99078.97;4953985;28;20503;-81
2021/08/20 11:09:30;;;;;;;3.08;1.92;;;;;;;24.02;47.48;99074.31;5028374;28;20042;-80
2021/08/20 11:12:00;;;;;;;7.85;2.35;;;;;;;24.34;48.77;99089.88;5031966;28;20095;-80
2021/08/20 11:14:37;;;;;;;5.93;2.35;;;;;;;24.37;48.02;99081.84;5031313;28;20067;-81
2021/08/20 11:17:05;;;;;;;2.60;2.05;;;;;;;24.12;49.54;99085.44;5031791;28;20112;-80
2021/08/20 11:19:53;;;;;;;5.10;2.20;;;;;;;23.64;50.74;99084.75;5031435;28;20053;-80
2021/08/20 11:22:23;;;;;;;3.53;2.30;;;;;;;23.32;52.01;99086.59;5032049;28;20053;-80
2021/08/20 11:25:22;;;;;;;2.35;2.00;;;;;;;23.33;53.25;99099.34;5013236;28;20119;-80
2021/08/20 11:28:05;;;;;;;4.60;1.92;;;;;;;23.52;51.69;99081.41;5032200;28;20053;-80
2021/08/20 11:30:34;;;;;;;3.50;2.08;;;;;;;23.83;49.64;99079.50;5030887;28;20477;-80
2021/08/20 11:33:12;;;;;;;2.43;2.10;;;;;;;23.91;49.85;99079.03;5031574;28;20434;-80
2021/08/20 11:35:40;;;;;;;3.38;2.20;;;;;;;23.98;48.92;99067.63;5031246;28;20375;-80
2021/08/20 11:38:07;;;;;;;5.30;2.17;;;;;;;24.54;48.78;99083.50;5030551;28;20103;-80
2021/08/20 11:40:47;;;;;;;2.63;1.95;;;;;;;24.34;47.87;99081.53;5034034;28;20050;-80
2021/08/20 11:43:16;;;;;;;3.88;2.20;;;;;;;24.19;46.72;99072.13;5033190;28;20043;-79
2021/08/20 11:45:43;;;;;;;4.75;2.17;;;;;;;24.28;46.13;99077.09;5015662;28;20050;-79
2021/08/20 11:48:10;;;;;;;6.20;2.30;;;;;;;24.29;47.87;99073.22;5026609;28;20049;-79